sensor_id;sensor_type;location;lat;lon;timestamp;P1;durP1;ratioP1;P2;durP2;ratioP2
11960;SDS011;6040;49.358;11.140;2024-03-02T00:01:14;37.57;;;22.20;;
11960;SDS011;6040;49.358;11.140;2024-03-02T00:03:42;35.93;;;21.67;;
11960;SDS011;6040;49.358;11.140;2024-03-02T00:06:10;31.87;;;22.37;;
11960;SDS011;6040;49.358;11.140;2024-03-02T00:08:37;36.23;;;22.07;;
11960;SDS011;6040;49.358;11.140;2024-03-02T00:11:04;35.47;;;22.47;;
11960;SDS011;6040;49.358;11.140;2024-03-02T00:13:31;35.73;;;23.10;;
11960;SDS011;6040;49.358;11.140;2024-03-02T00:16:00;34.13;;;22.37;;
11960;SDS011;6040;49.358;11.140;2024-03-02T00:18:30;38.50;;;23.20;;
11960;SDS011;6040;49.358;11.140;2024-03-02T00:20:58;35.37;;;22.50;;
11960;SDS011;6040;49.358;11.140;2024-03-02T00:23:29;39.77;;;22.70;;
11960;SDS011;6040;49.358;11.140;2024-03-02T00:25:57;39.57;;;23.10;;
11960;SDS011;6040;49.358;11.140;2024-03-02T00:28:25;38.67;;;22.63;;
11960;SDS011;6040;49.358;11.140;2024-03-02T00:30:57;40.23;;;22.90;;
11960;SDS011;6040;49.358;11.140;2024-03-02T00:33:30;38.27;;;23.73;;
11960;SDS011;6040;49.358;11.140;2024-03-02T00:35:58;39.23;;;23.63;;
11960;SDS011;6040;49.358;11.140;2024-03-02T00:38:26;41.73;;;24.77;;
11960;SDS011;6040;49.358;11.140;2024-03-02T00:40:54;36.63;;;23.67;;
11960;SDS011;6040;49.358;11.140;2024-03-02T00:46:09;38.77;;;24.00;;
11960;SDS011;6040;49.358;11.140;2024-03-02T00:48:39;38.40;;;24.23;;
11960;SDS011;6040;49.358;11.140;2024-03-02T00:51:20;37.20;;;24.37;;
11960;SDS011;6040;49.358;11.140;2024-03-02T00:53:49;39.90;;;22.80;;
11960;SDS011;6040;49.358;11.140;2024-03-02T00:56:17;39.63;;;23.57;;
11960;SDS011;6040;49.358;11.140;2024-03-02T00:58:45;40.50;;;23.63;;
11960;SDS011;6040;49.358;11.140;2024-03-02T01:01:12;37.37;;;23.27;;
11960;SDS011;6040;49.358;11.140;2024-03-02T01:03:39;43.07;;;23.90;;
11960;SDS011;6040;49.358;11.140;2024-03-02T01:06:06;38.80;;;23.30;;
11960;SDS011;6040;49.358;11.140;2024-03-02T01:08:33;41.17;;;23.70;;
11960;SDS011;6040;49.358;11.140;2024-03-02T01:11:02;36.87;;;23.30;;
11960;SDS011;6040;49.358;11.140;2024-03-02T01:13:29;39.03;;;23.40;;
11960;SDS011;6040;49.358;11.140;2024-03-02T01:15:56;36.00;;;23.10;;
11960;SDS011;6040;49.358;11.140;2024-03-02T01:18:24;33.57;;;22.07;;
11960;SDS011;6040;49.358;11.140;2024-03-02T01:20:50;37.50;;;22.90;;
11960;SDS011;6040;49.358;11.140;2024-03-02T01:23:18;39.07;;;24.67;;
11960;SDS011;6040;49.358;11.140;2024-03-02T01:25:46;35.27;;;22.43;;
11960;SDS011;6040;49.358;11.140;2024-03-02T01:28:14;36.43;;;22.67;;
11960;SDS011;6040;49.358;11.140;2024-03-02T01:30:41;35.97;;;21.87;;
11960;SDS011;6040;49.358;11.140;2024-03-02T01:33:08;33.60;;;21.03;;
11960;SDS011;6040;49.358;11.140;2024-03-02T01:35:35;35.07;;;22.10;;
11960;SDS011;6040;49.358;11.140;2024-03-02T01:38:02;37.07;;;22.87;;
11960;SDS011;6040;49.358;11.140;2024-03-02T01:40:31;40.80;;;24.47;;
11960;SDS011;6040;49.358;11.140;2024-03-02T01:42:58;38.77;;;23.97;;
11960;SDS011;6040;49.358;11.140;2024-03-02T01:45:26;35.67;;;22.03;;
11960;SDS011;6040;49.358;11.140;2024-03-02T01:47:53;35.47;;;23.33;;
11960;SDS011;6040;49.358;11.140;2024-03-02T01:50:26;39.27;;;22.97;;
11960;SDS011;6040;49.358;11.140;2024-03-02T01:52:55;32.93;;;22.07;;
11960;SDS011;6040;49.358;11.140;2024-03-02T01:55:22;37.20;;;22.83;;
11960;SDS011;6040;49.358;11.140;2024-03-02T01:57:50;39.10;;;22.53;;
11960;SDS011;6040;49.358;11.140;2024-03-02T02:00:18;32.80;;;21.80;;
11960;SDS011;6040;49.358;11.140;2024-03-02T02:02:46;33.80;;;21.77;;
11960;SDS011;6040;49.358;11.140;2024-03-02T02:05:14;34.10;;;22.17;;
11960;SDS011;6040;49.358;11.140;2024-03-02T02:07:42;35.63;;;22.37;;
11960;SDS011;6040;49.358;11.140;2024-03-02T02:10:09;33.47;;;21.93;;
11960;SDS011;6040;49.358;11.140;2024-03-02T02:12:36;31.27;;;20.60;;
11960;SDS011;6040;49.358;11.140;2024-03-02T02:15:03;34.23;;;21.27;;
11960;SDS011;6040;49.358;11.140;2024-03-02T02:17:48;32.30;;;21.07;;
11960;SDS011;6040;49.358;11.140;2024-03-02T02:20:15;30.20;;;20.20;;
11960;SDS011;6040;49.358;11.140;2024-03-02T02:22:53;35.00;;;22.30;;
11960;SDS011;6040;49.358;11.140;2024-03-02T02:25:21;37.13;;;22.53;;
11960;SDS011;6040;49.358;11.140;2024-03-02T02:27:48;34.10;;;20.97;;
11960;SDS011;6040;49.358;11.140;2024-03-02T02:30:18;35.97;;;20.90;;
11960;SDS011;6040;49.358;11.140;2024-03-02T02:32:45;32.93;;;21.30;;
11960;SDS011;6040;49.358;11.140;2024-03-02T02:35:12;32.83;;;21.47;;
11960;SDS011;6040;49.358;11.140;2024-03-02T02:37:39;36.13;;;22.43;;
11960;SDS011;6040;49.358;11.140;2024-03-02T02:40:09;33.30;;;21.17;;
11960;SDS011;6040;49.358;11.140;2024-03-02T02:42:36;37.33;;;22.30;;
11960;SDS011;6040;49.358;11.140;2024-03-02T02:45:03;34.33;;;21.57;;
11960;SDS011;6040;49.358;11.140;2024-03-02T02:47:31;34.13;;;22.57;;
11960;SDS011;6040;49.358;11.140;2024-03-02T02:50:00;32.97;;;21.33;;
11960;SDS011;6040;49.358;11.140;2024-03-02T02:52:30;33.17;;;21.53;;
11960;SDS011;6040;49.358;11.140;2024-03-02T02:54:58;34.03;;;21.07;;
11960;SDS011;6040;49.358;11.140;2024-03-02T02:57:26;32.17;;;21.23;;
11960;SDS011;6040;49.358;11.140;2024-03-02T02:59:55;33.37;;;21.07;;
11960;SDS011;6040;49.358;11.140;2024-03-02T03:02:22;38.00;;;21.67;;
11960;SDS011;6040;49.358;11.140;2024-03-02T03:04:49;32.40;;;20.77;;
11960;SDS011;6040;49.358;11.140;2024-03-02T03:07:15;35.53;;;21.27;;
11960;SDS011;6040;49.358;11.140;2024-03-02T03:09:42;36.97;;;21.47;;
11960;SDS011;6040;49.358;11.140;2024-03-02T03:12:09;34.00;;;22.03;;
11960;SDS011;6040;49.358;11.140;2024-03-02T03:14:37;32.13;;;21.47;;
11960;SDS011;6040;49.358;11.140;2024-03-02T03:17:06;33.60;;;20.90;;
11960;SDS011;6040;49.358;11.140;2024-03-02T03:19:33;35.63;;;20.97;;
11960;SDS011;6040;49.358;11.140;2024-03-02T03:22:00;33.10;;;21.00;;
11960;SDS011;6040;49.358;11.140;2024-03-02T03:24:28;35.17;;;22.23;;
11960;SDS011;6040;49.358;11.140;2024-03-02T03:26:55;35.30;;;21.40;;
11960;SDS011;6040;49.358;11.140;2024-03-02T03:29:22;36.47;;;21.50;;
11960;SDS011;6040;49.358;11.140;2024-03-02T03:31:50;29.50;;;20.80;;
11960;SDS011;6040;49.358;11.140;2024-03-02T03:34:17;32.83;;;20.67;;
11960;SDS011;6040;49.358;11.140;2024-03-02T03:36:44;33.13;;;21.37;;
11960;SDS011;6040;49.358;11.140;2024-03-02T03:39:11;32.40;;;19.70;;
11960;SDS011;6040;49.358;11.140;2024-03-02T03:41:38;31.80;;;20.53;;
11960;SDS011;6040;49.358;11.140;2024-03-02T03:44:06;31.83;;;19.77;;
11960;SDS011;6040;49.358;11.140;2024-03-02T03:46:33;35.37;;;20.33;;
11960;SDS011;6040;49.358;11.140;2024-03-02T03:49:01;29.53;;;19.70;;
11960;SDS011;6040;49.358;11.140;2024-03-02T03:51:28;33.17;;;20.57;;
11960;SDS011;6040;49.358;11.140;2024-03-02T03:53:56;30.20;;;19.90;;
11960;SDS011;6040;49.358;11.140;2024-03-02T03:56:23;29.67;;;19.23;;
11960;SDS011;6040;49.358;11.140;2024-03-02T03:58:50;29.83;;;19.73;;
11960;SDS011;6040;49.358;11.140;2024-03-02T04:01:17;29.83;;;19.33;;
11960;SDS011;6040;49.358;11.140;2024-03-02T04:03:44;33.43;;;18.73;;
11960;SDS011;6040;49.358;11.140;2024-03-02T04:06:12;27.23;;;18.53;;
11960;SDS011;6040;49.358;11.140;2024-03-02T04:08:41;29.33;;;18.03;;
11960;SDS011;6040;49.358;11.140;2024-03-02T04:11:08;28.93;;;17.53;;
11960;SDS011;6040;49.358;11.140;2024-03-02T04:13:35;28.43;;;17.40;;
11960;SDS011;6040;49.358;11.140;2024-03-02T04:16:02;25.50;;;17.83;;
11960;SDS011;6040;49.358;11.140;2024-03-02T04:18:30;25.97;;;16.57;;
11960;SDS011;6040;49.358;11.140;2024-03-02T04:20:57;25.33;;;17.53;;
11960;SDS011;6040;49.358;11.140;2024-03-02T04:23:25;29.33;;;17.67;;
11960;SDS011;6040;49.358;11.140;2024-03-02T04:25:52;27.27;;;17.57;;
11960;SDS011;6040;49.358;11.140;2024-03-02T04:28:19;26.43;;;16.67;;
11960;SDS011;6040;49.358;11.140;2024-03-02T04:30:46;27.87;;;18.23;;
11960;SDS011;6040;49.358;11.140;2024-03-02T04:33:13;26.47;;;16.23;;
11960;SDS011;6040;49.358;11.140;2024-03-02T04:35:39;25.53;;;17.10;;
11960;SDS011;6040;49.358;11.140;2024-03-02T04:38:07;27.03;;;16.80;;
11960;SDS011;6040;49.358;11.140;2024-03-02T04:40:35;26.23;;;17.60;;
11960;SDS011;6040;49.358;11.140;2024-03-02T04:43:01;26.17;;;16.50;;
11960;SDS011;6040;49.358;11.140;2024-03-02T04:45:28;26.63;;;16.30;;
11960;SDS011;6040;49.358;11.140;2024-03-02T04:47:55;26.97;;;17.17;;
11960;SDS011;6040;49.358;11.140;2024-03-02T04:50:22;25.27;;;17.07;;
11960;SDS011;6040;49.358;11.140;2024-03-02T04:52:49;23.17;;;16.20;;
11960;SDS011;6040;49.358;11.140;2024-03-02T04:55:16;24.87;;;16.00;;
11960;SDS011;6040;49.358;11.140;2024-03-02T04:58:17;22.93;;;15.07;;
11960;SDS011;6040;49.358;11.140;2024-03-02T05:00:42;25.03;;;16.37;;
11960;SDS011;6040;49.358;11.140;2024-03-02T05:03:11;24.37;;;16.27;;
11960;SDS011;6040;49.358;11.140;2024-03-02T05:05:38;23.27;;;14.93;;
11960;SDS011;6040;49.358;11.140;2024-03-02T05:08:05;24.03;;;14.60;;
11960;SDS011;6040;49.358;11.140;2024-03-02T05:10:32;21.83;;;14.77;;
11960;SDS011;6040;49.358;11.140;2024-03-02T05:12:59;25.07;;;15.47;;
11960;SDS011;6040;49.358;11.140;2024-03-02T05:15:27;20.40;;;14.47;;
11960;SDS011;6040;49.358;11.140;2024-03-02T05:17:53;19.70;;;14.10;;
11960;SDS011;6040;49.358;11.140;2024-03-02T05:20:21;20.57;;;13.57;;
11960;SDS011;6040;49.358;11.140;2024-03-02T05:22:48;22.93;;;14.00;;
11960;SDS011;6040;49.358;11.140;2024-03-02T05:25:15;21.33;;;13.87;;
11960;SDS011;6040;49.358;11.140;2024-03-02T05:27:42;19.83;;;14.07;;
11960;SDS011;6040;49.358;11.140;2024-03-02T05:30:09;18.87;;;13.57;;
11960;SDS011;6040;49.358;11.140;2024-03-02T05:32:38;18.97;;;13.43;;
11960;SDS011;6040;49.358;11.140;2024-03-02T05:35:05;21.13;;;13.20;;
11960;SDS011;6040;49.358;11.140;2024-03-02T05:37:33;19.20;;;13.67;;
11960;SDS011;6040;49.358;11.140;2024-03-02T05:40:00;17.63;;;13.30;;
11960;SDS011;6040;49.358;11.140;2024-03-02T05:42:26;21.17;;;14.03;;
11960;SDS011;6040;49.358;11.140;2024-03-02T05:44:53;21.30;;;13.80;;
11960;SDS011;6040;49.358;11.140;2024-03-02T05:47:20;22.07;;;13.17;;
11960;SDS011;6040;49.358;11.140;2024-03-02T05:49:48;18.63;;;12.87;;
11960;SDS011;6040;49.358;11.140;2024-03-02T05:52:15;20.80;;;13.27;;
11960;SDS011;6040;49.358;11.140;2024-03-02T05:54:42;22.27;;;13.90;;
11960;SDS011;6040;49.358;11.140;2024-03-02T05:57:09;21.03;;;13.93;;
11960;SDS011;6040;49.358;11.140;2024-03-02T05:59:58;21.37;;;13.17;;
11960;SDS011;6040;49.358;11.140;2024-03-02T06:02:25;20.07;;;13.37;;
11960;SDS011;6040;49.358;11.140;2024-03-02T06:04:55;20.13;;;13.47;;
11960;SDS011;6040;49.358;11.140;2024-03-02T06:07:22;20.57;;;13.80;;
11960;SDS011;6040;49.358;11.140;2024-03-02T06:09:49;23.07;;;14.47;;
11960;SDS011;6040;49.358;11.140;2024-03-02T06:12:17;19.47;;;13.80;;
11960;SDS011;6040;49.358;11.140;2024-03-02T06:14:44;22.63;;;14.67;;
11960;SDS011;6040;49.358;11.140;2024-03-02T06:17:11;23.10;;;15.03;;
11960;SDS011;6040;49.358;11.140;2024-03-02T06:19:38;24.00;;;14.43;;
11960;SDS011;6040;49.358;11.140;2024-03-02T06:22:06;18.87;;;13.23;;
11960;SDS011;6040;49.358;11.140;2024-03-02T06:24:35;23.60;;;13.37;;
11960;SDS011;6040;49.358;11.140;2024-03-02T06:27:02;22.87;;;14.80;;
11960;SDS011;6040;49.358;11.140;2024-03-02T06:29:29;22.33;;;15.00;;
11960;SDS011;6040;49.358;11.140;2024-03-02T06:31:58;24.13;;;14.60;;
11960;SDS011;6040;49.358;11.140;2024-03-02T06:34:25;23.07;;;14.77;;
11960;SDS011;6040;49.358;11.140;2024-03-02T06:36:51;21.47;;;14.53;;
11960;SDS011;6040;49.358;11.140;2024-03-02T06:39:20;24.47;;;16.27;;
11960;SDS011;6040;49.358;11.140;2024-03-02T06:41:46;25.13;;;15.43;;
11960;SDS011;6040;49.358;11.140;2024-03-02T06:44:13;24.57;;;15.60;;
11960;SDS011;6040;49.358;11.140;2024-03-02T06:46:40;24.30;;;15.10;;
11960;SDS011;6040;49.358;11.140;2024-03-02T06:49:07;22.60;;;15.50;;
11960;SDS011;6040;49.358;11.140;2024-03-02T06:51:35;26.07;;;16.67;;
11960;SDS011;6040;49.358;11.140;2024-03-02T06:54:02;26.13;;;16.60;;
11960;SDS011;6040;49.358;11.140;2024-03-02T06:56:30;25.23;;;15.10;;
11960;SDS011;6040;49.358;11.140;2024-03-02T06:58:58;26.90;;;16.93;;
11960;SDS011;6040;49.358;11.140;2024-03-02T07:01:24;25.57;;;16.07;;
11960;SDS011;6040;49.358;11.140;2024-03-02T07:03:53;31.97;;;18.10;;
11960;SDS011;6040;49.358;11.140;2024-03-02T07:06:19;28.13;;;16.40;;
11960;SDS011;6040;49.358;11.140;2024-03-02T07:08:46;26.50;;;16.80;;
11960;SDS011;6040;49.358;11.140;2024-03-02T07:11:13;24.03;;;15.83;;
11960;SDS011;6040;49.358;11.140;2024-03-02T07:13:41;22.80;;;15.37;;
11960;SDS011;6040;49.358;11.140;2024-03-02T07:16:08;23.70;;;15.87;;
11960;SDS011;6040;49.358;11.140;2024-03-02T07:18:55;23.40;;;15.37;;
11960;SDS011;6040;49.358;11.140;2024-03-02T07:21:22;25.50;;;16.17;;
11960;SDS011;6040;49.358;11.140;2024-03-02T07:23:49;29.07;;;17.73;;
11960;SDS011;6040;49.358;11.140;2024-03-02T07:26:16;30.27;;;17.53;;
11960;SDS011;6040;49.358;11.140;2024-03-02T07:28:45;26.43;;;17.83;;
11960;SDS011;6040;49.358;11.140;2024-03-02T07:31:14;23.63;;;15.97;;
11960;SDS011;6040;49.358;11.140;2024-03-02T07:33:43;26.27;;;17.10;;
11960;SDS011;6040;49.358;11.140;2024-03-02T07:36:10;23.60;;;15.83;;
11960;SDS011;6040;49.358;11.140;2024-03-02T07:38:37;23.60;;;15.97;;
11960;SDS011;6040;49.358;11.140;2024-03-02T07:41:05;23.83;;;16.33;;
11960;SDS011;6040;49.358;11.140;2024-03-02T07:43:32;23.23;;;15.47;;
11960;SDS011;6040;49.358;11.140;2024-03-02T07:46:00;24.73;;;15.73;;
11960;SDS011;6040;49.358;11.140;2024-03-02T07:48:28;21.10;;;14.63;;
11960;SDS011;6040;49.358;11.140;2024-03-02T07:50:55;21.67;;;14.97;;
11960;SDS011;6040;49.358;11.140;2024-03-02T07:53:22;21.10;;;15.10;;
11960;SDS011;6040;49.358;11.140;2024-03-02T07:55:49;20.10;;;14.27;;
11960;SDS011;6040;49.358;11.140;2024-03-02T07:58:16;18.63;;;13.70;;
11960;SDS011;6040;49.358;11.140;2024-03-02T08:00:44;18.47;;;14.27;;
11960;SDS011;6040;49.358;11.140;2024-03-02T08:03:12;19.83;;;14.03;;
11960;SDS011;6040;49.358;11.140;2024-03-02T08:05:40;22.90;;;14.27;;
11960;SDS011;6040;49.358;11.140;2024-03-02T08:08:06;18.23;;;13.53;;
11960;SDS011;6040;49.358;11.140;2024-03-02T08:10:33;19.53;;;13.80;;
11960;SDS011;6040;49.358;11.140;2024-03-02T08:13:00;17.73;;;13.17;;
11960;SDS011;6040;49.358;11.140;2024-03-02T08:15:27;18.23;;;13.03;;
11960;SDS011;6040;49.358;11.140;2024-03-02T08:17:54;18.53;;;13.40;;
11960;SDS011;6040;49.358;11.140;2024-03-02T08:20:22;18.83;;;12.70;;
11960;SDS011;6040;49.358;11.140;2024-03-02T08:22:49;17.50;;;13.07;;
11960;SDS011;6040;49.358;11.140;2024-03-02T08:25:16;18.60;;;14.10;;
11960;SDS011;6040;49.358;11.140;2024-03-02T08:27:43;18.03;;;12.67;;
11960;SDS011;6040;49.358;11.140;2024-03-02T08:30:11;17.23;;;12.97;;
11960;SDS011;6040;49.358;11.140;2024-03-02T08:32:38;16.40;;;12.80;;
11960;SDS011;6040;49.358;11.140;2024-03-02T08:35:06;17.50;;;13.10;;
11960;SDS011;6040;49.358;11.140;2024-03-02T08:37:34;17.97;;;13.13;;
11960;SDS011;6040;49.358;11.140;2024-03-02T08:40:04;15.17;;;11.43;;
11960;SDS011;6040;49.358;11.140;2024-03-02T08:42:32;16.80;;;12.73;;
11960;SDS011;6040;49.358;11.140;2024-03-02T08:45:00;16.90;;;12.83;;
11960;SDS011;6040;49.358;11.140;2024-03-02T08:47:27;17.70;;;13.17;;
11960;SDS011;6040;49.358;11.140;2024-03-02T08:49:54;16.37;;;12.50;;
11960;SDS011;6040;49.358;11.140;2024-03-02T08:52:21;15.10;;;12.03;;
11960;SDS011;6040;49.358;11.140;2024-03-02T08:54:49;13.47;;;11.37;;
11960;SDS011;6040;49.358;11.140;2024-03-02T08:57:15;14.83;;;12.07;;
11960;SDS011;6040;49.358;11.140;2024-03-02T08:59:42;13.50;;;10.87;;
11960;SDS011;6040;49.358;11.140;2024-03-02T09:02:09;14.63;;;11.20;;
11960;SDS011;6040;49.358;11.140;2024-03-02T09:04:36;14.27;;;11.07;;
11960;SDS011;6040;49.358;11.140;2024-03-02T09:07:03;12.77;;;10.30;;
11960;SDS011;6040;49.358;11.140;2024-03-02T09:09:30;13.13;;;9.90;;
11960;SDS011;6040;49.358;11.140;2024-03-02T09:11:59;11.93;;;10.00;;
11960;SDS011;6040;49.358;11.140;2024-03-02T09:14:26;12.43;;;9.80;;
11960;SDS011;6040;49.358;11.140;2024-03-02T09:16:53;11.20;;;9.67;;
11960;SDS011;6040;49.358;11.140;2024-03-02T09:19:20;11.30;;;9.80;;
11960;SDS011;6040;49.358;11.140;2024-03-02T09:21:47;11.70;;;9.80;;
11960;SDS011;6040;49.358;11.140;2024-03-02T09:24:13;11.53;;;9.90;;
11960;SDS011;6040;49.358;11.140;2024-03-02T09:26:40;11.90;;;9.70;;
11960;SDS011;6040;49.358;11.140;2024-03-02T09:29:08;10.83;;;9.27;;
11960;SDS011;6040;49.358;11.140;2024-03-02T09:31:38;11.97;;;10.03;;
11960;SDS011;6040;49.358;11.140;2024-03-02T09:34:06;11.33;;;9.73;;
11960;SDS011;6040;49.358;11.140;2024-03-02T09:36:32;10.47;;;9.33;;
11960;SDS011;6040;49.358;11.140;2024-03-02T09:38:59;12.23;;;9.07;;
11960;SDS011;6040;49.358;11.140;2024-03-02T09:41:28;11.77;;;9.63;;
11960;SDS011;6040;49.358;11.140;2024-03-02T09:43:55;12.23;;;9.37;;
11960;SDS011;6040;49.358;11.140;2024-03-02T09:46:24;11.17;;;8.90;;
11960;SDS011;6040;49.358;11.140;2024-03-02T09:48:51;10.33;;;8.73;;
11960;SDS011;6040;49.358;11.140;2024-03-02T09:51:17;10.37;;;8.53;;
11960;SDS011;6040;49.358;11.140;2024-03-02T09:53:45;11.90;;;8.50;;
11960;SDS011;6040;49.358;11.140;2024-03-02T09:56:13;8.80;;;7.90;;
11960;SDS011;6040;49.358;11.140;2024-03-02T09:58:40;9.50;;;8.07;;
11960;SDS011;6040;49.358;11.140;2024-03-02T10:01:09;9.13;;;8.17;;
11960;SDS011;6040;49.358;11.140;2024-03-02T10:03:37;11.03;;;7.97;;
11960;SDS011;6040;49.358;11.140;2024-03-02T10:06:20;9.63;;;8.63;;
11960;SDS011;6040;49.358;11.140;2024-03-02T10:08:47;9.60;;;8.00;;
11960;SDS011;6040;49.358;11.140;2024-03-02T10:14:06;12.70;;;9.93;;
11960;SDS011;6040;49.358;11.140;2024-03-02T10:16:37;12.43;;;10.07;;
11960;SDS011;6040;49.358;11.140;2024-03-02T10:21:57;12.90;;;10.63;;
11960;SDS011;6040;49.358;11.140;2024-03-02T10:24:25;15.00;;;11.80;;
11960;SDS011;6040;49.358;11.140;2024-03-02T10:26:52;14.57;;;11.77;;
11960;SDS011;6040;49.358;11.140;2024-03-02T10:29:21;13.33;;;10.33;;
11960;SDS011;6040;49.358;11.140;2024-03-02T10:31:48;15.03;;;12.00;;
11960;SDS011;6040;49.358;11.140;2024-03-02T10:34:15;15.30;;;11.17;;
11960;SDS011;6040;49.358;11.140;2024-03-02T10:36:43;13.90;;;11.53;;
11960;SDS011;6040;49.358;11.140;2024-03-02T10:39:11;15.60;;;11.90;;
11960;SDS011;6040;49.358;11.140;2024-03-02T10:41:40;15.63;;;11.93;;
11960;SDS011;6040;49.358;11.140;2024-03-02T10:44:07;13.63;;;10.80;;
11960;SDS011;6040;49.358;11.140;2024-03-02T10:46:35;15.17;;;11.70;;
11960;SDS011;6040;49.358;11.140;2024-03-02T10:49:04;14.87;;;12.33;;
11960;SDS011;6040;49.358;11.140;2024-03-02T10:51:32;15.13;;;11.30;;
11960;SDS011;6040;49.358;11.140;2024-03-02T10:54:03;20.70;;;12.60;;
11960;SDS011;6040;49.358;11.140;2024-03-02T10:56:31;16.93;;;12.73;;
11960;SDS011;6040;49.358;11.140;2024-03-02T10:59:01;13.40;;;12.00;;
11960;SDS011;6040;49.358;11.140;2024-03-02T11:01:29;13.23;;;10.63;;
11960;SDS011;6040;49.358;11.140;2024-03-02T11:03:59;11.57;;;8.13;;
11960;SDS011;6040;49.358;11.140;2024-03-02T11:06:28;16.37;;;12.33;;
11960;SDS011;6040;49.358;11.140;2024-03-02T11:08:58;16.10;;;12.50;;
11960;SDS011;6040;49.358;11.140;2024-03-02T11:11:36;16.93;;;11.43;;
11960;SDS011;6040;49.358;11.140;2024-03-02T11:14:06;13.77;;;10.93;;
11960;SDS011;6040;49.358;11.140;2024-03-02T11:16:37;12.90;;;10.13;;
11960;SDS011;6040;49.358;11.140;2024-03-02T11:19:06;12.47;;;9.97;;
11960;SDS011;6040;49.358;11.140;2024-03-02T11:21:36;13.87;;;10.83;;
11960;SDS011;6040;49.358;11.140;2024-03-02T11:27:58;13.53;;;9.73;;
11960;SDS011;6040;49.358;11.140;2024-03-02T11:33:27;15.17;;;11.00;;
11960;SDS011;6040;49.358;11.140;2024-03-02T11:35:56;16.83;;;12.33;;
11960;SDS011;6040;49.358;11.140;2024-03-02T11:38:27;15.73;;;12.37;;
11960;SDS011;6040;49.358;11.140;2024-03-02T11:40:56;14.33;;;10.30;;
11960;SDS011;6040;49.358;11.140;2024-03-02T11:43:24;16.53;;;11.20;;
11960;SDS011;6040;49.358;11.140;2024-03-02T11:45:56;17.87;;;11.80;;
11960;SDS011;6040;49.358;11.140;2024-03-02T11:48:24;17.33;;;12.13;;
11960;SDS011;6040;49.358;11.140;2024-03-02T11:50:51;18.83;;;12.73;;
11960;SDS011;6040;49.358;11.140;2024-03-02T11:53:19;21.20;;;15.20;;
11960;SDS011;6040;49.358;11.140;2024-03-02T11:55:47;22.27;;;14.67;;
11960;SDS011;6040;49.358;11.140;2024-03-02T11:58:16;19.73;;;14.47;;
11960;SDS011;6040;49.358;11.140;2024-03-02T12:00:47;21.27;;;14.80;;
11960;SDS011;6040;49.358;11.140;2024-03-02T12:03:16;21.60;;;15.50;;
11960;SDS011;6040;49.358;11.140;2024-03-02T12:05:43;23.07;;;16.87;;
11960;SDS011;6040;49.358;11.140;2024-03-02T12:08:11;24.07;;;16.80;;
11960;SDS011;6040;49.358;11.140;2024-03-02T12:10:39;22.27;;;16.70;;
11960;SDS011;6040;49.358;11.140;2024-03-02T12:13:06;24.97;;;17.73;;
11960;SDS011;6040;49.358;11.140;2024-03-02T12:15:36;22.47;;;17.03;;
11960;SDS011;6040;49.358;11.140;2024-03-02T12:18:06;22.23;;;16.67;;
11960;SDS011;6040;49.358;11.140;2024-03-02T12:20:33;24.30;;;16.77;;
11960;SDS011;6040;49.358;11.140;2024-03-02T12:23:00;20.23;;;13.27;;
11960;SDS011;6040;49.358;11.140;2024-03-02T12:25:28;22.40;;;14.77;;
11960;SDS011;6040;49.358;11.140;2024-03-02T12:27:58;19.13;;;13.80;;
11960;SDS011;6040;49.358;11.140;2024-03-02T12:30:26;20.63;;;15.27;;
11960;SDS011;6040;49.358;11.140;2024-03-02T12:32:55;19.60;;;14.17;;
11960;SDS011;6040;49.358;11.140;2024-03-02T12:35:23;17.33;;;13.03;;
11960;SDS011;6040;49.358;11.140;2024-03-02T12:37:51;19.33;;;14.17;;
11960;SDS011;6040;49.358;11.140;2024-03-02T12:40:19;20.80;;;13.60;;
11960;SDS011;6040;49.358;11.140;2024-03-02T12:42:47;20.17;;;14.27;;
11960;SDS011;6040;49.358;11.140;2024-03-02T12:45:15;19.60;;;14.50;;
11960;SDS011;6040;49.358;11.140;2024-03-02T12:47:48;20.73;;;14.03;;
11960;SDS011;6040;49.358;11.140;2024-03-02T12:50:15;19.93;;;13.70;;
11960;SDS011;6040;49.358;11.140;2024-03-02T12:52:43;19.73;;;14.43;;
11960;SDS011;6040;49.358;11.140;2024-03-02T12:55:16;19.03;;;13.43;;
11960;SDS011;6040;49.358;11.140;2024-03-02T12:57:43;16.60;;;12.67;;
11960;SDS011;6040;49.358;11.140;2024-03-02T13:00:10;19.83;;;13.93;;
11960;SDS011;6040;49.358;11.140;2024-03-02T13:02:40;18.77;;;14.30;;
11960;SDS011;6040;49.358;11.140;2024-03-02T13:05:08;18.10;;;13.13;;
11960;SDS011;6040;49.358;11.140;2024-03-02T13:07:36;18.93;;;13.50;;
11960;SDS011;6040;49.358;11.140;2024-03-02T13:10:05;18.07;;;13.50;;
11960;SDS011;6040;49.358;11.140;2024-03-02T13:12:34;20.03;;;13.63;;
11960;SDS011;6040;49.358;11.140;2024-03-02T13:15:02;20.17;;;14.33;;
11960;SDS011;6040;49.358;11.140;2024-03-02T13:17:30;20.00;;;14.13;;
11960;SDS011;6040;49.358;11.140;2024-03-02T13:19:59;20.13;;;14.13;;
11960;SDS011;6040;49.358;11.140;2024-03-02T13:22:26;17.37;;;12.10;;
11960;SDS011;6040;49.358;11.140;2024-03-02T13:24:53;20.80;;;13.40;;
11960;SDS011;6040;49.358;11.140;2024-03-02T13:27:21;17.50;;;13.30;;
11960;SDS011;6040;49.358;11.140;2024-03-02T13:29:48;19.33;;;13.10;;
11960;SDS011;6040;49.358;11.140;2024-03-02T13:32:16;18.77;;;13.17;;
11960;SDS011;6040;49.358;11.140;2024-03-02T13:34:45;16.30;;;12.17;;
11960;SDS011;6040;49.358;11.140;2024-03-02T13:37:12;16.80;;;10.90;;
11960;SDS011;6040;49.358;11.140;2024-03-02T13:39:39;19.27;;;12.77;;
11960;SDS011;6040;49.358;11.140;2024-03-02T13:42:07;17.63;;;13.10;;
11960;SDS011;6040;49.358;11.140;2024-03-02T13:44:36;17.47;;;12.17;;
11960;SDS011;6040;49.358;11.140;2024-03-02T13:47:03;15.23;;;11.37;;
11960;SDS011;6040;49.358;11.140;2024-03-02T13:49:31;19.17;;;11.73;;
11960;SDS011;6040;49.358;11.140;2024-03-02T13:52:01;18.47;;;13.37;;
11960;SDS011;6040;49.358;11.140;2024-03-02T13:54:36;19.20;;;13.10;;
11960;SDS011;6040;49.358;11.140;2024-03-02T13:57:03;19.63;;;13.20;;
11960;SDS011;6040;49.358;11.140;2024-03-02T13:59:30;18.00;;;12.37;;
11960;SDS011;6040;49.358;11.140;2024-03-02T14:01:59;18.10;;;12.07;;
11960;SDS011;6040;49.358;11.140;2024-03-02T14:04:25;15.67;;;10.53;;
11960;SDS011;6040;49.358;11.140;2024-03-02T14:06:52;17.57;;;11.90;;
11960;SDS011;6040;49.358;11.140;2024-03-02T14:09:19;17.90;;;12.20;;
11960;SDS011;6040;49.358;11.140;2024-03-02T14:11:46;16.70;;;11.93;;
11960;SDS011;6040;49.358;11.140;2024-03-02T14:14:14;17.63;;;12.50;;
11960;SDS011;6040;49.358;11.140;2024-03-02T14:16:41;17.57;;;12.87;;
11960;SDS011;6040;49.358;11.140;2024-03-02T14:19:09;17.60;;;12.53;;
11960;SDS011;6040;49.358;11.140;2024-03-02T14:21:36;16.77;;;12.10;;
11960;SDS011;6040;49.358;11.140;2024-03-02T14:24:03;16.07;;;11.87;;
11960;SDS011;6040;49.358;11.140;2024-03-02T14:26:31;17.90;;;13.00;;
11960;SDS011;6040;49.358;11.140;2024-03-02T14:28:58;17.53;;;11.00;;
11960;SDS011;6040;49.358;11.140;2024-03-02T14:31:26;17.07;;;11.87;;
11960;SDS011;6040;49.358;11.140;2024-03-02T14:33:53;15.43;;;11.60;;
11960;SDS011;6040;49.358;11.140;2024-03-02T14:36:22;15.50;;;12.00;;
11960;SDS011;6040;49.358;11.140;2024-03-02T14:38:48;15.97;;;11.70;;
11960;SDS011;6040;49.358;11.140;2024-03-02T14:41:16;18.40;;;11.87;;
11960;SDS011;6040;49.358;11.140;2024-03-02T14:43:42;16.20;;;12.33;;